Flight Number: EUR1533 Duration: 1:30
Departure: Barra Airport (EGPR) at 08:15 Distance: 272 Nm
Arrival: Liverpool Airport (EGGP) at 09:45 Equipment: B1900D

Weather Information
404 Not Found

Not Found

The requested URL /data/observations/metar/decoded/EGPR.TXT was not found on this server.


Sunrise: 08:51 Sunset: 16:31 (UTC)

Liverpool Airport , United Kingdom (EGGP) 53-20N 002-51W Jan 22, 2018 - 02:50 AM EST / 2018.01.22 0750 UTC
Wind: from the WNW (290 degrees) at 12 MPH (10 KT):0
Visibility: greater than 7 mile(s):0
Sky conditions: mostly cloudy Weather: showers in the vicinity Temperature: 46 F (8 C) Dew Point: 41 F (5 C) Relative Humidity: 81% Pressure (altimeter): 29.74 in. Hg (1007 hPa)
ob: EGGP 220750Z 29010KT 9999 VCSH FEW031 BKN044 08/05 Q1007 cycle: 8
Sunrise: 08:14 Sunset: 16:31 (UTC)

TAF:2018/01/22 06:15 TAF EGGP 220500Z 2206/2306 27012KT 9999 SCT035 PROB40 TEMPO 2208/2213 27015G25KT BECMG 2216/2219 21010KT BECMG 2221/2224 15008KT TEMPO 2303/2306 5000 -RADZ BKN012 PROB30 TEMPO 2304/2306 3000 RADZ BKN008

Previous Pireps for this route
Date Aircraft Flight time Fuel used Landing rate On time
2015-05-09B1900D01.391005-381Charter
2016-02-28B1900D01.12981-386Yes
2016-10-11B1900D01.121066-181No
(pireps marked green are flown by you)

Route map